Time;durP1;ratioP1;P1;durP2;ratioP2;P2;SDS_P1;SDS_P2;PMS_P1;PMS_P2;Temp;Humidity;BMP_temperature;BMP_pressure;BME280_temperature;BME280_humidity;BME280_pressure;Samples;Min_cycle;Max_cycle;Signal;HPM_P1;HPM_P2
2021/10/19 00:01:03;;;;;;;33.85;30.95;;;8.50;95.50;;;;;;5006344;28;20719;-70
2021/10/19 00:03:30;;;;;;;35.28;32.40;;;8.50;95.80;;;;;;5005770;28;20484;-70
2021/10/19 00:05:57;;;;;;;34.97;32.33;;;8.40;96.30;;;;;;5006966;28;20201;-71
2021/10/19 00:08:24;;;;;;;35.92;32.92;;;8.40;96.80;;;;;;5008580;28;20765;-70
2021/10/19 00:10:52;;;;;;;38.38;34.92;;;8.60;96.20;;;;;;5005597;28;20213;-71
2021/10/19 00:13:19;;;;;;;35.40;32.40;;;8.60;95.70;;;;;;5008135;28;20202;-71
2021/10/19 00:15:46;;;;;;;36.45;33.05;;;8.50;95.70;;;;;;5006667;28;20221;-71
2021/10/19 00:18:13;;;;;;;35.58;32.65;;;8.40;96.00;;;;;;5005070;28;20215;-71
2021/10/19 00:20:40;;;;;;;34.70;31.90;;;8.40;96.20;;;;;;5003812;28;20214;-71
2021/10/19 00:23:07;;;;;;;36.10;33.20;;;8.40;96.40;;;;;;5003406;28;23133;-71
2021/10/19 00:25:34;;;;;;;35.92;32.85;;;8.40;96.40;;;;;;5002921;28;20213;-71
2021/10/19 00:28:02;;;;;;;35.05;32.45;;;8.50;96.40;;;;;;5004763;28;20311;-70
2021/10/19 00:30:29;;;;;;;35.38;32.30;;;8.50;96.00;;;;;;5006644;28;20674;-70
2021/10/19 00:32:56;;;;;;;34.53;31.73;;;8.40;96.10;;;;;;5007436;28;20218;-70
2021/10/19 00:35:23;;;;;;;33.17;30.60;;;8.50;96.00;;;;;;5004531;28;20358;-70
2021/10/19 00:37:50;;;;;;;35.90;33.00;;;8.50;95.70;;;;;;5006294;28;20201;-71
2021/10/19 00:40:17;;;;;;;36.03;33.03;;;8.50;95.70;;;;;;5005393;28;20197;-70
2021/10/19 00:42:44;;;;;;;35.40;32.47;;;8.50;95.70;;;;;;5005578;28;21111;-70
2021/10/19 00:45:13;;;;;;;35.83;32.70;;;8.60;96.30;;;;;;5004555;28;20206;-70
2021/10/19 00:47:47;;;;;;;34.20;31.50;;;8.50;95.70;;;;;;5005894;28;20685;-70
2021/10/19 00:50:14;;;;;;;34.35;31.63;;;8.50;95.80;;;;;;5005449;28;20378;-70
2021/10/19 00:52:42;;;;;;;35.15;32.30;;;8.50;95.70;;;;;;5007028;28;20221;-70
2021/10/19 00:55:10;;;;;;;34.00;30.95;;;8.50;95.70;;;;;;5005877;28;20201;-70
2021/10/19 00:57:38;;;;;;;33.65;31.02;;;8.60;95.80;;;;;;5007040;28;20204;-70
2021/10/19 01:00:07;;;;;;;33.67;31.00;;;8.60;95.70;;;;;;5005158;28;20845;-70
2021/10/19 01:02:38;;;;;;;32.67;30.17;;;8.50;95.50;;;;;;5006375;28;20209;-70
2021/10/19 01:05:06;;;;;;;33.88;31.13;;;8.50;95.70;;;;;;5006601;28;20207;-70
2021/10/19 01:07:33;;;;;;;32.17;29.73;;;8.50;95.60;;;;;;5006708;28;20198;-70
2021/10/19 01:10:02;;;;;;;32.25;29.77;;;8.60;95.30;;;;;;5005195;28;20204;-70
2021/10/19 01:12:29;;;;;;;31.63;28.88;;;8.60;95.40;;;;;;5005626;28;20222;-70
2021/10/19 01:14:56;;;;;;;33.03;30.25;;;8.50;95.30;;;;;;5007390;28;20197;-70
2021/10/19 01:17:23;;;;;;;32.90;30.13;;;8.50;95.50;;;;;;5004463;28;20200;-70
2021/10/19 01:19:52;;;;;;;32.00;29.50;;;8.50;95.20;;;;;;5004846;28;20897;-70
2021/10/19 01:22:19;;;;;;;31.90;29.38;;;8.60;95.20;;;;;;5006031;28;20209;-70
2021/10/19 01:24:46;;;;;;;31.42;29.02;;;8.60;95.00;;;;;;5002581;28;20212;-70
2021/10/19 01:27:13;;;;;;;31.15;28.85;;;8.60;94.90;;;;;;5008696;28;20566;-70
2021/10/19 01:29:40;;;;;;;30.63;28.42;;;8.60;95.00;;;;;;5005170;28;20201;-70
2021/10/19 01:32:10;;;;;;;30.92;28.77;;;8.60;94.90;;;;;;5004495;28;20324;-70
2021/10/19 01:34:37;;;;;;;31.70;29.25;;;8.50;94.80;;;;;;5003790;28;20193;-70
2021/10/19 01:37:06;;;;;;;30.63;28.40;;;8.50;95.00;;;;;;5005529;28;20198;-70
2021/10/19 01:39:33;;;;;;;31.73;29.35;;;8.70;94.70;;;;;;5004468;28;20204;-70
2021/10/19 01:41:59;;;;;;;29.85;27.55;;;8.70;94.50;;;;;;5005004;28;20209;-70
2021/10/19 01:44:26;;;;;;;30.48;28.27;;;8.80;94.10;;;;;;5002732;28;20550;-70
2021/10/19 01:46:53;;;;;;;29.42;27.35;;;8.80;94.20;;;;;;5005916;28;20247;-70
2021/10/19 01:49:20;;;;;;;29.77;27.63;;;8.70;94.10;;;;;;5003260;28;20646;-70
2021/10/19 01:51:47;;;;;;;30.33;27.98;;;8.70;94.40;;;;;;5004692;28;20232;-70
2021/10/19 01:54:15;;;;;;;30.70;28.40;;;8.70;94.40;;;;;;5003648;28;20219;-70
2021/10/19 01:56:42;;;;;;;28.50;26.70;;;8.80;94.50;;;;;;5006312;28;20215;-70
2021/10/19 01:59:09;;;;;;;29.45;27.33;;;8.80;94.40;;;;;;5003754;28;20240;-70
2021/10/19 02:01:39;;;;;;;28.40;26.48;;;8.90;94.20;;;;;;5003304;28;20217;-70
2021/10/19 02:04:06;;;;;;;29.35;27.13;;;9.00;94.50;;;;;;5004203;28;20209;-70
2021/10/19 02:06:32;;;;;;;29.45;27.25;;;8.90;94.20;;;;;;5004287;28;20855;-70
2021/10/19 02:08:59;;;;;;;29.42;27.35;;;9.00;94.20;;;;;;5005268;28;20244;-70
2021/10/19 02:11:28;;;;;;;29.77;27.67;;;9.00;93.90;;;;;;5003340;28;20235;-70
2021/10/19 02:13:54;;;;;;;30.93;28.63;;;9.00;94.10;;;;;;5004017;28;20201;-70
2021/10/19 02:16:21;;;;;;;27.92;26.02;;;9.00;94.00;;;;;;5002229;28;20586;-70
2021/10/19 02:18:48;;;;;;;29.25;27.20;;;9.00;93.50;;;;;;5004458;28;20543;-70
2021/10/19 02:21:15;;;;;;;31.75;29.00;;;8.90;93.40;;;;;;5003183;28;20560;-70
2021/10/19 02:23:42;;;;;;;32.60;29.98;;;8.90;93.90;;;;;;5004335;28;20613;-70
2021/10/19 02:26:09;;;;;;;32.20;29.70;;;9.00;93.80;;;;;;4998962;28;20208;-70
2021/10/19 02:28:37;;;;;;;33.55;30.95;;;9.00;93.80;;;;;;5003541;28;20456;-71
2021/10/19 02:31:06;;;;;;;31.55;29.15;;;9.10;94.20;;;;;;5005475;28;20465;-70
2021/10/19 02:33:33;;;;;;;30.48;28.25;;;9.10;94.10;;;;;;5007934;28;20311;-70
2021/10/19 02:36:00;;;;;;;30.55;28.13;;;9.20;94.80;;;;;;5007642;28;20212;-70
2021/10/19 02:38:27;;;;;;;31.38;29.15;;;9.20;94.40;;;;;;5007914;28;20834;-70
2021/10/19 02:40:54;;;;;;;33.53;31.07;;;9.20;93.90;;;;;;5005570;28;20222;-70
2021/10/19 02:43:21;;;;;;;33.45;30.88;;;9.20;93.80;;;;;;5008743;28;20448;-70
2021/10/19 02:45:49;;;;;;;30.73;28.38;;;9.30;93.60;;;;;;5008529;28;20197;-70
2021/10/19 02:48:16;;;;;;;30.77;28.58;;;9.30;93.50;;;;;;5009049;28;20205;-70
2021/10/19 02:50:43;;;;;;;28.20;26.20;;;9.20;93.30;;;;;;5006899;28;20215;-70
2021/10/19 02:53:09;;;;;;;28.27;26.42;;;9.20;93.30;;;;;;5007691;28;20213;-70
2021/10/19 02:55:36;;;;;;;30.35;28.15;;;9.20;93.00;;;;;;5007754;28;20205;-70
2021/10/19 02:58:03;;;;;;;29.30;27.30;;;9.20;93.20;;;;;;5008836;28;20224;-70
2021/10/19 03:00:30;;;;;;;28.23;26.33;;;9.30;93.10;;;;;;5005314;28;21079;-70
2021/10/19 03:02:58;;;;;;;29.23;27.13;;;9.20;93.30;;;;;;5002527;28;20465;-70
2021/10/19 03:05:25;;;;;;;30.30;28.20;;;9.20;93.40;;;;;;5008566;28;20469;-70
2021/10/19 03:07:52;;;;;;;33.00;30.70;;;9.20;93.50;;;;;;5004313;28;21380;-70
2021/10/19 03:10:19;;;;;;;29.30;27.10;;;9.30;93.30;;;;;;5002461;28;20461;-70
2021/10/19 03:12:46;;;;;;;28.77;26.90;;;9.30;93.20;;;;;;5006874;28;20854;-70
2021/10/19 03:15:13;;;;;;;30.67;28.53;;;9.40;93.20;;;;;;5007351;28;20962;-70
2021/10/19 03:17:40;;;;;;;29.77;27.73;;;9.40;93.10;;;;;;5006938;28;20830;-70
2021/10/19 03:20:09;;;;;;;29.47;27.47;;;9.40;93.10;;;;;;5006008;28;20485;-70
2021/10/19 03:22:36;;;;;;;28.07;26.00;;;9.40;93.00;;;;;;5008701;28;20780;-70
2021/10/19 03:25:03;;;;;;;28.77;26.80;;;9.50;92.90;;;;;;5007134;28;22211;-70
2021/10/19 03:27:30;;;;;;;28.10;26.10;;;9.60;92.50;;;;;;5007031;28;20988;-70
2021/10/19 03:29:58;;;;;;;28.13;26.13;;;9.60;92.30;;;;;;5006553;28;21176;-70
2021/10/19 03:32:25;;;;;;;29.80;27.87;;;9.60;92.50;;;;;;5007669;28;20515;-70
2021/10/19 03:34:52;;;;;;;27.83;26.03;;;9.70;92.20;;;;;;5006766;28;20456;-70
2021/10/19 03:37:20;;;;;;;28.20;26.40;;;9.80;92.10;;;;;;5007503;28;20843;-70
2021/10/19 03:39:47;;;;;;;28.40;26.37;;;9.90;91.70;;;;;;5005157;28;20464;-70
2021/10/19 03:42:14;;;;;;;28.70;26.80;;;9.90;91.60;;;;;;5006706;28;20490;-70
2021/10/19 03:44:41;;;;;;;27.77;26.07;;;10.00;91.30;;;;;;5005565;28;20614;-70
2021/10/19 03:47:08;;;;;;;28.63;26.53;;;10.00;91.00;;;;;;5008513;28;20712;-70
2021/10/19 03:49:35;;;;;;;27.37;25.57;;;10.10;90.90;;;;;;5004867;28;20468;-70
2021/10/19 03:52:02;;;;;;;28.03;26.23;;;10.20;91.10;;;;;;5008222;28;20819;-70
2021/10/19 03:54:30;;;;;;;28.57;26.70;;;10.20;91.00;;;;;;5009540;28;20479;-70
2021/10/19 03:56:57;;;;;;;28.80;26.93;;;10.30;90.60;;;;;;5007197;28;20460;-70
2021/10/19 03:59:24;;;;;;;28.00;26.20;;;10.30;90.50;;;;;;5006687;28;20455;-70
2021/10/19 04:01:51;;;;;;;27.30;25.37;;;10.30;90.00;;;;;;5006067;28;21190;-70
2021/10/19 04:04:19;;;;;;;30.83;28.93;;;10.30;90.20;;;;;;5005066;28;20470;-70
2021/10/19 04:06:46;;;;;;;28.07;26.30;;;10.30;90.30;;;;;;5007108;28;20501;-70
2021/10/19 04:09:12;;;;;;;27.73;26.03;;;10.30;90.60;;;;;;5007102;28;21032;-70
2021/10/19 04:11:41;;;;;;;28.20;26.30;;;10.40;90.10;;;;;;5010092;28;20567;-70
2021/10/19 04:14:08;;;;;;;26.87;25.10;;;10.40;89.90;;;;;;5009347;28;23171;-70
2021/10/19 04:16:35;;;;;;;27.80;26.03;;;10.40;89.80;;;;;;5010332;28;20460;-70
2021/10/19 04:19:02;;;;;;;27.70;25.90;;;10.50;89.90;;;;;;5009929;28;20958;-70
2021/10/19 04:21:29;;;;;;;30.43;27.90;;;10.50;89.70;;;;;;5008820;28;20483;-70
2021/10/19 04:23:56;;;;;;;30.27;28.07;;;10.40;89.80;;;;;;5008669;28;20456;-70
2021/10/19 04:26:23;;;;;;;32.33;29.93;;;10.30;90.10;;;;;;5008229;28;20455;-70
2021/10/19 04:28:51;;;;;;;31.60;29.30;;;10.40;89.80;;;;;;5010169;28;20891;-70
2021/10/19 04:31:18;;;;;;;32.47;30.07;;;10.30;90.00;;;;;;5008106;28;20494;-70
2021/10/19 04:33:45;;;;;;;32.50;30.10;;;10.30;90.20;;;;;;5008876;28;21012;-70
2021/10/19 04:36:12;;;;;;;31.17;28.87;;;10.30;90.20;;;;;;5009268;28;21149;-70
2021/10/19 04:38:39;;;;;;;30.23;28.00;;;10.30;90.30;;;;;;5009237;28;20459;-70
2021/10/19 04:41:07;;;;;;;32.67;30.27;;;10.40;90.70;;;;;;5007778;28;20478;-71
2021/10/19 04:43:34;;;;;;;32.20;29.93;;;10.40;90.50;;;;;;5006960;28;20456;-70
2021/10/19 04:46:02;;;;;;;32.00;29.80;;;10.30;90.20;;;;;;5009061;28;20459;-71
2021/10/19 04:48:29;;;;;;;31.20;28.90;;;10.40;90.20;;;;;;5008715;28;20464;-70
2021/10/19 04:50:56;;;;;;;32.67;30.07;;;10.40;90.00;;;;;;5007750;28;20480;-70
2021/10/19 04:53:23;;;;;;;32.40;30.10;;;10.40;90.00;;;;;;5009251;28;20475;-71
2021/10/19 04:55:50;;;;;;;32.87;30.57;;;10.40;90.30;;;;;;5008637;28;20467;-70
2021/10/19 04:58:18;;;;;;;30.27;28.17;;;10.40;90.30;;;;;;5010038;28;20471;-70
2021/10/19 05:00:47;;;;;;;32.87;30.50;;;10.50;90.10;;;;;;5007736;28;20491;-70
2021/10/19 05:03:17;;;;;;;31.93;29.73;;;10.50;90.30;;;;;;5008448;28;20950;-71
2021/10/19 05:05:44;;;;;;;29.90;27.80;;;10.50;90.30;;;;;;5010379;28;20602;-71
2021/10/19 05:08:11;;;;;;;32.40;29.73;;;10.50;90.20;;;;;;5001026;28;21192;-71
2021/10/19 05:10:38;;;;;;;33.60;31.00;;;10.50;90.20;;;;;;5000504;28;20469;-70
2021/10/19 05:13:05;;;;;;;31.47;28.73;;;10.50;90.20;;;;;;5005999;28;21075;-71
2021/10/19 05:15:32;;;;;;;31.60;29.17;;;10.50;90.20;;;;;;5003878;28;20567;-71
2021/10/19 05:17:59;;;;;;;31.80;29.40;;;10.50;90.10;;;;;;5005100;28;22092;-70
2021/10/19 05:20:28;;;;;;;31.87;29.30;;;10.50;90.20;;;;;;5004028;28;21009;-70
2021/10/19 05:22:56;;;;;;;30.53;28.53;;;10.50;90.30;;;;;;5008347;28;20608;-70
2021/10/19 05:25:23;;;;;;;32.07;29.57;;;10.50;90.50;;;;;;5001735;28;20465;-70
2021/10/19 05:27:50;;;;;;;31.70;29.60;;;10.60;90.60;;;;;;5002095;28;20459;-70
2021/10/19 05:30:19;;;;;;;31.43;29.20;;;10.60;90.60;;;;;;5008010;28;20472;-70
2021/10/19 05:32:46;;;;;;;32.67;30.17;;;10.60;90.60;;;;;;5009104;28;20483;-70
2021/10/19 05:35:13;;;;;;;30.33;28.03;;;10.70;91.00;;;;;;5006723;28;20468;-70
2021/10/19 05:37:41;;;;;;;31.27;29.17;;;10.70;90.60;;;;;;5009856;28;20946;-70
2021/10/19 05:40:10;;;;;;;33.30;30.70;;;10.70;90.60;;;;;;5014413;28;20470;-70
2021/10/19 05:42:37;;;;;;;31.77;29.67;;;10.80;90.50;;;;;;5011092;28;20993;-73
2021/10/19 05:45:05;;;;;;;32.13;29.93;;;10.80;90.60;;;;;;5005246;28;20469;-71
2021/10/19 05:47:32;;;;;;;30.53;28.30;;;10.90;90.70;;;;;;5007583;28;20460;-70
2021/10/19 05:49:59;;;;;;;35.40;32.80;;;10.90;90.30;;;;;;5007570;28;20776;-70
2021/10/19 05:52:26;;;;;;;32.60;30.30;;;10.90;91.10;;;;;;5010902;28;20484;-70
2021/10/19 05:54:54;;;;;;;32.83;30.50;;;10.90;90.80;;;;;;5018209;28;21257;-70
2021/10/19 05:57:21;;;;;;;32.40;30.20;;;10.90;90.70;;;;;;5021961;28;21676;-69
2021/10/19 05:59:48;;;;;;;35.70;33.03;;;10.90;90.40;;;;;;5007472;28;20460;-70
2021/10/19 06:02:15;;;;;;;34.60;32.20;;;10.90;90.50;;;;;;5007875;28;21164;-70
2021/10/19 06:04:42;;;;;;;34.00;31.30;;;10.90;90.60;;;;;;5005948;28;20456;-70
2021/10/19 06:07:09;;;;;;;37.40;34.30;;;10.90;90.80;;;;;;5015606;28;20475;-70
2021/10/19 06:09:36;;;;;;;34.80;32.40;;;10.90;90.60;;;;;;5018156;28;20468;-70
2021/10/19 06:12:05;;;;;;;32.93;30.53;;;11.00;90.40;;;;;;5017114;28;20737;-70
2021/10/19 06:14:32;;;;;;;34.30;31.73;;;11.00;90.20;;;;;;5004989;28;20530;-71
2021/10/19 06:16:59;;;;;;;35.20;32.37;;;11.00;90.10;;;;;;5009929;28;21118;-71
2021/10/19 06:19:26;;;;;;;31.37;29.20;;;11.00;90.20;;;;;;5015897;28;20958;-69
2021/10/19 06:21:53;;;;;;;30.80;28.60;;;11.10;90.30;;;;;;5016806;28;20530;-69
2021/10/19 06:24:20;;;;;;;30.60;28.60;;;11.20;90.50;;;;;;5010293;28;20575;-69
2021/10/19 06:26:48;;;;;;;29.27;27.40;;;11.30;90.30;;;;;;5009723;28;21073;-69
2021/10/19 06:29:16;;;;;;;29.70;27.63;;;11.30;90.80;;;;;;5015358;28;20462;-68
2021/10/19 06:31:43;;;;;;;29.63;27.70;;;11.30;91.00;;;;;;5010142;28;20488;-69
2021/10/19 06:34:11;;;;;;;29.40;27.50;;;11.50;90.90;;;;;;5012975;28;20499;-68
2021/10/19 06:36:38;;;;;;;30.00;27.77;;;11.50;90.60;;;;;;5011775;28;20486;-68
2021/10/19 06:39:06;;;;;;;29.63;27.57;;;11.70;90.40;;;;;;5005510;28;20479;-68
2021/10/19 06:41:34;;;;;;;28.10;26.13;;;11.70;89.90;;;;;;5005579;28;22228;-68
2021/10/19 06:44:01;;;;;;;27.53;25.83;;;11.80;89.60;;;;;;5007940;28;20460;-69
2021/10/19 06:46:30;;;;;;;28.37;26.37;;;11.80;89.60;;;;;;5014391;28;20962;-68
2021/10/19 06:48:57;;;;;;;26.43;24.83;;;11.80;89.50;;;;;;5021391;28;20967;-68
2021/10/19 06:51:24;;;;;;;28.40;26.50;;;11.90;89.30;;;;;;5026800;28;20830;-68
2021/10/19 06:53:51;;;;;;;29.10;27.07;;;11.90;89.40;;;;;;5024508;28;20508;-68
2021/10/19 06:56:18;;;;;;;28.23;26.37;;;11.90;89.10;;;;;;5026770;28;20455;-68
2021/10/19 06:58:44;;;;;;;28.77;26.83;;;12.00;89.10;;;;;;5023953;28;20554;-68
2021/10/19 07:01:11;;;;;;;29.00;27.10;;;11.80;89.70;;;;;;5025726;28;20579;-68
2021/10/19 07:03:40;;;;;;;27.40;25.60;;;11.90;89.70;;;;;;5023139;28;20456;-68
2021/10/19 07:06:07;;;;;;;28.77;26.77;;;11.90;89.50;;;;;;5025148;28;20456;-68
2021/10/19 07:08:35;;;;;;;31.77;29.27;;;12.00;89.40;;;;;;5012627;28;20559;-69
2021/10/19 07:11:02;;;;;;;31.33;29.07;;;12.10;88.60;;;;;;5025894;28;20476;-68
2021/10/19 07:13:29;;;;;;;34.10;31.40;;;12.20;87.80;;;;;;5025610;28;20468;-68
2021/10/19 07:15:57;;;;;;;35.43;32.70;;;12.50;86.20;;;;;;5028995;28;20235;-68
2021/10/19 07:18:25;;;;;;;32.70;30.43;;;12.50;85.70;;;;;;5028228;28;20470;-68
2021/10/19 07:20:54;;;;;;;34.20;31.80;;;12.50;85.30;;;;;;5030092;28;21004;-68
2021/10/19 07:23:22;;;;;;;32.87;30.27;;;12.50;85.20;;;;;;5032266;28;20460;-68
2021/10/19 07:25:49;;;;;;;32.60;30.00;;;12.50;85.10;;;;;;5030943;28;20576;-70
2021/10/19 07:28:16;;;;;;;33.17;30.80;;;12.50;84.50;;;;;;5028641;28;20464;-68
2021/10/19 07:30:43;;;;;;;33.50;30.90;;;12.40;84.80;;;;;;5018065;28;20833;-69
2021/10/19 07:33:10;;;;;;;31.83;29.47;;;12.50;85.20;;;;;;5026676;28;20456;-69
2021/10/19 07:35:37;;;;;;;33.93;31.57;;;12.50;85.20;;;;;;5022357;28;20472;-69
2021/10/19 07:38:06;;;;;;;34.30;31.80;;;12.60;85.70;;;;;;5025865;28;20837;-69
2021/10/19 07:40:33;;;;;;;31.57;29.27;;;12.60;85.70;;;;;;5030206;28;20455;-69
2021/10/19 07:43:00;;;;;;;33.97;31.20;;;12.70;85.50;;;;;;5028780;28;20455;-69
2021/10/19 07:45:28;;;;;;;32.03;29.67;;;12.80;84.60;;;;;;5028757;28;21420;-69
2021/10/19 07:47:59;;;;;;;32.67;30.33;;;13.00;84.40;;;;;;5024264;28;20471;-69
2021/10/19 07:50:29;;;;;;;34.00;31.63;;;13.00;84.60;;;;;;5027452;28;20468;-69
2021/10/19 07:52:56;;;;;;;32.77;29.87;;;13.10;84.70;;;;;;5027522;28;20460;-69
2021/10/19 07:55:26;;;;;;;36.47;33.23;;;13.20;84.70;;;;;;5029417;28;20483;-70
2021/10/19 07:57:54;;;;;;;33.10;30.70;;;13.20;84.30;;;;;;5033619;28;20459;-70
2021/10/19 08:00:24;;;;;;;35.00;32.30;;;13.40;84.20;;;;;;5028984;28;20464;-70
2021/10/19 08:02:52;;;;;;;32.13;29.93;;;13.50;81.80;;;;;;5029259;28;20500;-69
2021/10/19 08:05:19;;;;;;;35.20;32.40;;;13.40;82.30;;;;;;5028518;28;20616;-70
2021/10/19 08:07:48;;;;;;;36.23;32.80;;;13.60;81.40;;;;;;5028209;28;20460;-70
2021/10/19 08:10:18;;;;;;;36.57;33.17;;;13.70;80.40;;;;;;5030239;28;20948;-69
2021/10/19 08:12:46;;;;;;;34.47;31.77;;;13.70;80.00;;;;;;5026917;28;20484;-69
2021/10/19 08:15:14;;;;;;;35.10;31.90;;;13.50;80.10;;;;;;5029907;28;20511;-69
2021/10/19 08:17:41;;;;;;;34.10;31.30;;;13.40;80.50;;;;;;5024906;28;20550;-69
2021/10/19 08:20:10;;;;;;;34.90;32.40;;;13.30;80.80;;;;;;5027709;28;20463;-69
2021/10/19 08:22:37;;;;;;;32.80;30.30;;;13.40;81.10;;;;;;5022835;28;20488;-69
2021/10/19 08:25:08;;;;;;;34.17;31.40;;;13.40;81.60;;;;;;5026444;28;20546;-69
2021/10/19 08:27:36;;;;;;;32.60;30.50;;;13.50;81.60;;;;;;5026288;28;20471;-69
2021/10/19 08:30:07;;;;;;;34.67;31.70;;;13.50;81.40;;;;;;5029586;28;21045;-69
2021/10/19 08:32:34;;;;;;;34.53;31.73;;;13.60;81.00;;;;;;5027948;28;20486;-69
2021/10/19 08:35:01;;;;;;;33.80;31.40;;;13.70;80.00;;;;;;5029870;28;20479;-69
2021/10/19 08:37:28;;;;;;;34.93;32.07;;;13.80;79.60;;;;;;5027864;28;20491;-69
2021/10/19 08:39:55;;;;;;;33.53;31.13;;;13.90;79.10;;;;;;5027403;28;20474;-69
2021/10/19 08:42:22;;;;;;;36.40;32.97;;;13.90;79.10;;;;;;5025262;28;20484;-69
2021/10/19 08:44:49;;;;;;;34.70;32.20;;;13.90;79.10;;;;;;5021921;28;20525;-69
2021/10/19 08:47:17;;;;;;;34.70;32.30;;;14.00;79.10;;;;;;5025262;28;20466;-69
2021/10/19 08:49:45;;;;;;;34.97;32.20;;;14.00;79.10;;;;;;5028577;28;20912;-72
2021/10/19 08:52:11;;;;;;;34.20;31.60;;;13.90;80.10;;;;;;5024268;28;20487;-71
2021/10/19 08:54:39;;;;;;;32.87;30.40;;;13.80;81.00;;;;;;5027935;28;20486;-70
2021/10/19 08:57:14;;;;;;;32.97;30.67;;;13.80;81.40;;;;;;5024910;28;20460;-70
2021/10/19 08:59:44;;;;;;;33.63;31.33;;;13.80;82.10;;;;;;5018431;28;20850;-69
2021/10/19 09:02:12;;;;;;;33.83;31.60;;;13.70;82.70;;;;;;5025769;28;20486;-69
2021/10/19 09:04:42;;;;;;;33.23;31.03;;;13.50;84.40;;;;;;5027579;28;20536;-69
2021/10/19 09:07:09;;;;;;;33.00;30.50;;;13.60;84.90;;;;;;5020705;28;20467;-69
2021/10/19 09:09:38;;;;;;;33.50;31.10;;;13.60;85.70;;;;;;5026949;28;20491;-69
2021/10/19 09:12:06;;;;;;;32.83;30.17;;;13.70;86.00;;;;;;5028130;28;20487;-68
2021/10/19 09:14:34;;;;;;;31.30;29.10;;;13.70;86.20;;;;;;5028543;28;20468;-69
2021/10/19 09:17:04;;;;;;;30.73;28.73;;;13.80;86.00;;;;;;5026458;28;20468;-68
2021/10/19 09:19:34;;;;;;;32.67;30.43;;;13.80;86.00;;;;;;5020935;28;20774;-70
2021/10/19 09:22:07;;;;;;;26.90;25.20;;;13.80;86.40;;;;;;5019333;28;20498;-69
2021/10/19 09:24:36;;;;;;;27.13;25.40;;;13.80;86.90;;;;;;5027791;28;20506;-69
2021/10/19 09:27:04;;;;;;;25.93;24.23;;;13.90;86.40;;;;;;5024336;28;20548;-70
2021/10/19 09:29:35;;;;;;;25.90;24.20;;;14.00;86.00;;;;;;5023030;28;20841;-70
2021/10/19 09:32:06;;;;;;;25.53;23.97;;;14.20;85.30;;;;;;5023905;28;21034;-69
2021/10/19 09:34:34;;;;;;;26.70;25.00;;;14.30;85.00;;;;;;5027261;28;20479;-70
2021/10/19 09:37:03;;;;;;;27.30;25.67;;;14.40;84.30;;;;;;5024473;28;20461;-70
2021/10/19 09:39:38;;;;;;;25.97;24.27;;;14.50;84.00;;;;;;5023664;28;20460;-70
2021/10/19 09:42:07;;;;;;;26.10;24.50;;;14.60;84.00;;;;;;5023731;28;20838;-69
2021/10/19 09:44:34;;;;;;;25.20;23.60;;;14.60;83.70;;;;;;5027002;28;20450;-69
2021/10/19 09:47:02;;;;;;;25.53;24.13;;;14.70;83.70;;;;;;5026920;28;20547;-68
2021/10/19 09:49:29;;;;;;;24.70;23.30;;;14.80;83.30;;;;;;5026440;28;21026;-71
2021/10/19 09:51:58;;;;;;;24.73;23.33;;;14.90;83.30;;;;;;5026591;28;20582;-72
2021/10/19 09:54:29;;;;;;;25.10;23.60;;;15.00;82.80;;;;;;5027790;28;20509;-70
2021/10/19 09:56:58;;;;;;;25.40;23.90;;;15.00;82.80;;;;;;5025221;28;21009;-71
2021/10/19 09:59:25;;;;;;;25.10;23.67;;;15.10;82.40;;;;;;5027429;28;20460;-70
2021/10/19 10:01:52;;;;;;;27.20;25.60;;;15.10;82.60;;;;;;5024927;28;20467;-70
2021/10/19 10:04:21;;;;;;;25.60;24.10;;;15.30;82.30;;;;;;5027254;28;20551;-70
2021/10/19 10:06:49;;;;;;;24.77;23.37;;;15.30;82.00;;;;;;5026109;28;20529;-71
2021/10/19 10:09:16;;;;;;;24.47;23.10;;;15.30;81.70;;;;;;5027564;28;20476;-70
2021/10/19 10:11:45;;;;;;;23.43;22.13;;;15.40;81.50;;;;;;5032627;28;20472;-70
2021/10/19 10:14:14;;;;;;;24.00;22.70;;;15.40;81.20;;;;;;5023185;28;20565;-70
2021/10/19 10:16:46;;;;;;;24.13;22.73;;;15.50;81.50;;;;;;5026627;28;20917;-70
2021/10/19 10:19:15;;;;;;;23.67;22.37;;;15.50;81.60;;;;;;5021653;28;20502;-70
2021/10/19 10:21:48;;;;;;;23.40;22.10;;;15.70;81.80;;;;;;5022688;28;20850;-70
2021/10/19 10:24:26;;;;;;;24.73;23.27;;;15.70;81.10;;;;;;5013899;28;20969;-69
2021/10/19 10:27:03;;;;;;;24.03;22.63;;;15.80;81.80;;;;;;5019806;28;20554;-70
2021/10/19 10:29:39;;;;;;;24.50;22.97;;;15.80;81.30;;;;;;5025353;28;20568;-70
2021/10/19 10:32:06;;;;;;;24.30;22.83;;;15.90;81.60;;;;;;5023978;28;20484;-70
2021/10/19 10:34:33;;;;;;;23.60;22.23;;;16.00;81.00;;;;;;5025830;28;20888;-72
2021/10/19 10:37:10;;;;;;;23.83;22.47;;;16.10;81.40;;;;;;5026005;28;21057;-72
2021/10/19 10:39:40;;;;;;;25.13;23.70;;;16.20;81.00;;;;;;5026817;28;20471;-71
2021/10/19 10:42:10;;;;;;;23.27;22.03;;;16.20;80.50;;;;;;5024752;28;20482;-72
2021/10/19 10:44:39;;;;;;;24.57;23.17;;;16.20;80.60;;;;;;5022860;28;20458;-71
2021/10/19 10:47:07;;;;;;;23.37;22.07;;;16.10;80.60;;;;;;5029160;28;20456;-73
2021/10/19 10:49:35;;;;;;;24.17;22.87;;;16.20;81.00;;;;;;5026279;28;20468;-73
2021/10/19 10:52:02;;;;;;;23.63;22.23;;;16.10;81.00;;;;;;5026213;28;20555;-72
2021/10/19 10:54:29;;;;;;;23.87;22.57;;;16.20;80.40;;;;;;5029126;28;20490;-72
2021/10/19 10:56:57;;;;;;;23.70;22.30;;;16.20;80.70;;;;;;5028224;28;20885;-71
2021/10/19 10:59:27;;;;;;;23.90;22.60;;;16.20;81.00;;;;;;5030672;28;20866;-71
2021/10/19 11:01:56;;;;;;;22.73;21.53;;;16.30;81.20;;;;;;5025713;28;20487;-71
2021/10/19 11:04:22;;;;;;;23.00;21.70;;;16.30;81.60;;;;;;5029323;28;20462;-72
2021/10/19 11:06:50;;;;;;;24.00;22.70;;;16.30;81.10;;;;;;5027007;28;21264;-72
2021/10/19 11:09:18;;;;;;;22.67;21.37;;;16.40;80.70;;;;;;5024787;28;20456;-74
2021/10/19 11:11:47;;;;;;;23.60;22.20;;;16.40;80.90;;;;;;5027802;28;20471;-71
2021/10/19 11:14:16;;;;;;;24.00;22.50;;;16.40;81.10;;;;;;5025703;28;20463;-72
2021/10/19 11:16:46;;;;;;;24.30;22.80;;;16.50;80.90;;;;;;5029277;28;20455;-71
2021/10/19 11:19:17;;;;;;;24.70;23.40;;;16.50;80.80;;;;;;5027733;28;20459;-72
2021/10/19 11:21:45;;;;;;;24.10;22.80;;;16.50;80.60;;;;;;5026620;28;21038;-71
2021/10/19 11:24:12;;;;;;;26.10;24.67;;;16.70;80.00;;;;;;5029776;28;20447;-72
2021/10/19 11:26:41;;;;;;;23.97;22.67;;;16.80;79.70;;;;;;5029276;28;21051;-71
2021/10/19 11:29:08;;;;;;;25.23;23.77;;;16.80;79.30;;;;;;5025670;28;20448;-71
2021/10/19 11:31:37;;;;;;;24.50;23.10;;;16.80;79.40;;;;;;5030457;28;20997;-71
2021/10/19 11:34:07;;;;;;;26.00;24.50;;;16.70;79.40;;;;;;5024506;28;20470;-71
2021/10/19 11:36:35;;;;;;;24.63;23.23;;;16.70;78.90;;;;;;5032422;28;20950;-71
2021/10/19 11:39:11;;;;;;;24.83;23.47;;;16.70;78.50;;;;;;5026590;28;20463;-71
2021/10/19 11:41:39;;;;;;;25.53;24.10;;;16.80;78.40;;;;;;5028934;28;20893;-70
2021/10/19 11:44:07;;;;;;;25.40;23.90;;;16.80;78.30;;;;;;5024022;28;20466;-71
2021/10/19 11:46:36;;;;;;;24.27;22.97;;;17.00;77.90;;;;;;5029237;28;20506;-71
2021/10/19 11:49:05;;;;;;;25.97;24.50;;;17.00;77.80;;;;;;5032209;28;20940;-74
2021/10/19 11:51:35;;;;;;;26.00;24.60;;;17.10;77.50;;;;;;5025659;28;20463;-74
2021/10/19 11:54:04;;;;;;;25.60;24.10;;;17.20;77.50;;;;;;5026476;28;20456;-77
2021/10/19 11:56:31;;;;;;;26.97;25.50;;;17.40;76.90;;;;;;5027933;28;20483;-76
2021/10/19 11:59:02;;;;;;;25.10;23.80;;;17.50;77.00;;;;;;5027001;28;20558;-76
2021/10/19 12:01:36;;;;;;;26.37;24.73;;;17.50;75.90;;;;;;5030774;28;20525;-72
2021/10/19 12:04:05;;;;;;;26.73;25.20;;;17.50;75.50;;;;;;5028031;28;20460;-72
2021/10/19 12:06:35;;;;;;;27.57;25.87;;;17.30;75.50;;;;;;5029962;28;20452;-72
2021/10/19 12:09:13;;;;;;;27.67;26.10;;;17.20;75.80;;;;;;5027753;28;20487;-73
2021/10/19 12:11:41;;;;;;;25.97;24.47;;;17.20;76.40;;;;;;5024331;28;20475;-69
2021/10/19 12:14:09;;;;;;;25.97;24.63;;;17.10;77.00;;;;;;5028167;28;20462;-71
2021/10/19 12:16:36;;;;;;;25.43;23.93;;;17.00;77.10;;;;;;5022890;28;20575;-70
2021/10/19 12:19:04;;;;;;;24.87;23.50;;;17.00;77.40;;;;;;5034595;28;20459;-71
2021/10/19 12:21:34;;;;;;;25.90;24.30;;;17.00;78.40;;;;;;5028949;28;20471;-70
2021/10/19 12:24:03;;;;;;;26.37;24.80;;;17.10;77.90;;;;;;5025240;28;20557;-71
2021/10/19 12:26:32;;;;;;;25.80;24.27;;;16.90;78.30;;;;;;5022912;28;20455;-72
2021/10/19 12:29:04;;;;;;;25.40;24.00;;;16.80;79.30;;;;;;5028612;28;20605;-71
2021/10/19 12:31:32;;;;;;;25.67;24.20;;;16.90;78.40;;;;;;5028715;28;20555;-72
2021/10/19 12:34:01;;;;;;;26.93;25.20;;;16.90;78.70;;;;;;5027276;28;20459;-71